sensor_id;sensor_type;location;lat;lon;timestamp;P1;durP1;ratioP1;P2;durP2;ratioP2
15637;SDS011;26604;53.596;10.042;2023-08-20T00:01:00;21.50;;;6.20;;
15637;SDS011;26604;53.596;10.042;2023-08-20T00:03:29;25.95;;;7.25;;
15637;SDS011;26604;53.596;10.042;2023-08-20T00:05:56;23.85;;;7.50;;
15637;SDS011;26604;53.596;10.042;2023-08-20T00:08:23;17.50;;;6.50;;
15637;SDS011;26604;53.596;10.042;2023-08-20T00:10:51;14.90;;;6.70;;
15637;SDS011;26604;53.596;10.042;2023-08-20T00:13:18;22.90;;;6.55;;
15637;SDS011;26604;53.596;10.042;2023-08-20T00:15:45;27.15;;;8.18;;
15637;SDS011;26604;53.596;10.042;2023-08-20T00:18:13;25.88;;;6.88;;
15637;SDS011;26604;53.596;10.042;2023-08-20T00:20:40;31.88;;;8.13;;
15637;SDS011;26604;53.596;10.042;2023-08-20T00:23:10;18.60;;;7.30;;
15637;SDS011;26604;53.596;10.042;2023-08-20T00:25:38;24.38;;;8.02;;
15637;SDS011;26604;53.596;10.042;2023-08-20T00:28:06;18.65;;;7.63;;
15637;SDS011;26604;53.596;10.042;2023-08-20T00:30:33;23.30;;;7.72;;
15637;SDS011;26604;53.596;10.042;2023-08-20T00:33:00;20.00;;;7.47;;
15637;SDS011;26604;53.596;10.042;2023-08-20T00:35:27;19.42;;;8.30;;
15637;SDS011;26604;53.596;10.042;2023-08-20T00:37:54;28.33;;;8.40;;
15637;SDS011;26604;53.596;10.042;2023-08-20T00:40:21;25.63;;;8.27;;
15637;SDS011;26604;53.596;10.042;2023-08-20T00:42:48;23.95;;;7.38;;
15637;SDS011;26604;53.596;10.042;2023-08-20T00:45:16;17.50;;;8.52;;
15637;SDS011;26604;53.596;10.042;2023-08-20T00:47:43;25.42;;;10.93;;
15637;SDS011;26604;53.596;10.042;2023-08-20T00:50:10;28.58;;;11.77;;
15637;SDS011;26604;53.596;10.042;2023-08-20T00:52:38;28.63;;;8.23;;
15637;SDS011;26604;53.596;10.042;2023-08-20T00:55:06;22.50;;;8.52;;
15637;SDS011;26604;53.596;10.042;2023-08-20T00:57:34;24.50;;;8.88;;
15637;SDS011;26604;53.596;10.042;2023-08-20T01:00:02;29.30;;;9.35;;
15637;SDS011;26604;53.596;10.042;2023-08-20T01:02:35;24.70;;;9.82;;
15637;SDS011;26604;53.596;10.042;2023-08-20T01:05:03;32.00;;;9.70;;
15637;SDS011;26604;53.596;10.042;2023-08-20T01:07:33;27.08;;;9.50;;
15637;SDS011;26604;53.596;10.042;2023-08-20T01:10:18;31.00;;;9.95;;
15637;SDS011;26604;53.596;10.042;2023-08-20T01:12:50;26.35;;;9.50;;
15637;SDS011;26604;53.596;10.042;2023-08-20T01:15:18;27.27;;;9.63;;
15637;SDS011;26604;53.596;10.042;2023-08-20T01:17:47;27.13;;;9.27;;
15637;SDS011;26604;53.596;10.042;2023-08-20T01:20:15;29.50;;;9.55;;
15637;SDS011;26604;53.596;10.042;2023-08-20T01:22:49;32.13;;;9.32;;
15637;SDS011;26604;53.596;10.042;2023-08-20T01:25:30;27.85;;;9.63;;
15637;SDS011;26604;53.596;10.042;2023-08-20T01:28:16;29.50;;;10.60;;
15637;SDS011;26604;53.596;10.042;2023-08-20T01:30:45;29.95;;;11.20;;
15637;SDS011;26604;53.596;10.042;2023-08-20T01:33:13;28.88;;;11.63;;
15637;SDS011;26604;53.596;10.042;2023-08-20T01:35:40;28.92;;;10.57;;
15637;SDS011;26604;53.596;10.042;2023-08-20T01:38:07;28.88;;;12.02;;
15637;SDS011;26604;53.596;10.042;2023-08-20T01:40:34;40.97;;;12.38;;
15637;SDS011;26604;53.596;10.042;2023-08-20T01:43:01;32.53;;;11.32;;
15637;SDS011;26604;53.596;10.042;2023-08-20T01:45:29;32.78;;;12.98;;
15637;SDS011;26604;53.596;10.042;2023-08-20T01:47:56;28.23;;;11.70;;
15637;SDS011;26604;53.596;10.042;2023-08-20T01:50:23;26.75;;;10.93;;
15637;SDS011;26604;53.596;10.042;2023-08-20T01:52:50;25.35;;;11.60;;
15637;SDS011;26604;53.596;10.042;2023-08-20T01:55:17;32.47;;;10.88;;
15637;SDS011;26604;53.596;10.042;2023-08-20T01:57:44;33.28;;;10.68;;
15637;SDS011;26604;53.596;10.042;2023-08-20T02:00:11;27.77;;;11.00;;
15637;SDS011;26604;53.596;10.042;2023-08-20T02:02:40;40.45;;;12.98;;
15637;SDS011;26604;53.596;10.042;2023-08-20T02:05:07;31.17;;;10.82;;
15637;SDS011;26604;53.596;10.042;2023-08-20T02:07:35;36.75;;;12.82;;
15637;SDS011;26604;53.596;10.042;2023-08-20T02:10:03;27.95;;;10.98;;
15637;SDS011;26604;53.596;10.042;2023-08-20T02:12:30;32.20;;;11.00;;
15637;SDS011;26604;53.596;10.042;2023-08-20T02:14:57;28.10;;;10.60;;
15637;SDS011;26604;53.596;10.042;2023-08-20T02:17:24;30.80;;;10.95;;
15637;SDS011;26604;53.596;10.042;2023-08-20T02:19:52;27.98;;;10.25;;
15637;SDS011;26604;53.596;10.042;2023-08-20T02:22:19;32.65;;;12.77;;
15637;SDS011;26604;53.596;10.042;2023-08-20T02:24:46;36.85;;;14.07;;
15637;SDS011;26604;53.596;10.042;2023-08-20T02:27:13;38.67;;;12.23;;
15637;SDS011;26604;53.596;10.042;2023-08-20T02:29:40;25.75;;;11.93;;
15637;SDS011;26604;53.596;10.042;2023-08-20T02:32:07;33.97;;;12.90;;
15637;SDS011;26604;53.596;10.042;2023-08-20T02:34:33;36.92;;;10.25;;
15637;SDS011;26604;53.596;10.042;2023-08-20T02:37:02;39.80;;;13.25;;
15637;SDS011;26604;53.596;10.042;2023-08-20T02:39:28;30.67;;;11.63;;
15637;SDS011;26604;53.596;10.042;2023-08-20T02:41:56;37.17;;;12.75;;
15637;SDS011;26604;53.596;10.042;2023-08-20T02:44:23;28.98;;;12.25;;
15637;SDS011;26604;53.596;10.042;2023-08-20T02:46:50;31.88;;;12.13;;
15637;SDS011;26604;53.596;10.042;2023-08-20T02:49:17;35.25;;;12.25;;
15637;SDS011;26604;53.596;10.042;2023-08-20T02:51:43;33.40;;;12.43;;
15637;SDS011;26604;53.596;10.042;2023-08-20T02:54:12;36.88;;;12.88;;
15637;SDS011;26604;53.596;10.042;2023-08-20T02:56:38;29.77;;;11.35;;
15637;SDS011;26604;53.596;10.042;2023-08-20T02:59:05;46.80;;;12.68;;
15637;SDS011;26604;53.596;10.042;2023-08-20T03:01:32;36.72;;;12.68;;
15637;SDS011;26604;53.596;10.042;2023-08-20T03:04:16;36.35;;;13.68;;
15637;SDS011;26604;53.596;10.042;2023-08-20T03:06:43;30.45;;;11.82;;
15637;SDS011;26604;53.596;10.042;2023-08-20T03:09:10;36.55;;;12.82;;
15637;SDS011;26604;53.596;10.042;2023-08-20T03:11:37;35.78;;;13.07;;
15637;SDS011;26604;53.596;10.042;2023-08-20T03:14:03;31.98;;;11.20;;
15637;SDS011;26604;53.596;10.042;2023-08-20T03:16:30;36.30;;;12.82;;
15637;SDS011;26604;53.596;10.042;2023-08-20T03:18:57;35.17;;;12.93;;
15637;SDS011;26604;53.596;10.042;2023-08-20T03:21:25;42.35;;;12.38;;
15637;SDS011;26604;53.596;10.042;2023-08-20T03:23:52;36.90;;;13.98;;
15637;SDS011;26604;53.596;10.042;2023-08-20T03:26:19;36.28;;;14.27;;
15637;SDS011;26604;53.596;10.042;2023-08-20T03:28:46;41.03;;;12.77;;
15637;SDS011;26604;53.596;10.042;2023-08-20T03:31:13;31.83;;;12.48;;
15637;SDS011;26604;53.596;10.042;2023-08-20T03:33:40;29.45;;;12.60;;
15637;SDS011;26604;53.596;10.042;2023-08-20T03:36:07;30.50;;;11.50;;
15637;SDS011;26604;53.596;10.042;2023-08-20T03:38:35;37.30;;;13.38;;
15637;SDS011;26604;53.596;10.042;2023-08-20T03:41:02;27.83;;;12.73;;
15637;SDS011;26604;53.596;10.042;2023-08-20T03:43:29;39.58;;;13.98;;
15637;SDS011;26604;53.596;10.042;2023-08-20T03:45:56;30.90;;;13.93;;
15637;SDS011;26604;53.596;10.042;2023-08-20T03:48:23;48.15;;;13.50;;
15637;SDS011;26604;53.596;10.042;2023-08-20T03:50:50;33.95;;;12.27;;
15637;SDS011;26604;53.596;10.042;2023-08-20T03:53:17;33.47;;;13.02;;
15637;SDS011;26604;53.596;10.042;2023-08-20T03:55:48;29.80;;;13.05;;
15637;SDS011;26604;53.596;10.042;2023-08-20T03:58:15;43.80;;;13.30;;
15637;SDS011;26604;53.596;10.042;2023-08-20T04:00:43;36.78;;;12.75;;
15637;SDS011;26604;53.596;10.042;2023-08-20T04:03:10;38.80;;;13.57;;
15637;SDS011;26604;53.596;10.042;2023-08-20T04:05:37;34.40;;;12.68;;
15637;SDS011;26604;53.596;10.042;2023-08-20T04:08:05;32.13;;;13.40;;
15637;SDS011;26604;53.596;10.042;2023-08-20T04:10:32;40.17;;;14.13;;
15637;SDS011;26604;53.596;10.042;2023-08-20T04:13:01;42.38;;;14.57;;
15637;SDS011;26604;53.596;10.042;2023-08-20T04:15:27;39.00;;;13.77;;
15637;SDS011;26604;53.596;10.042;2023-08-20T04:17:54;34.60;;;14.13;;
15637;SDS011;26604;53.596;10.042;2023-08-20T04:20:23;48.97;;;15.23;;
15637;SDS011;26604;53.596;10.042;2023-08-20T04:22:50;42.83;;;14.93;;
15637;SDS011;26604;53.596;10.042;2023-08-20T04:25:17;36.08;;;14.18;;
15637;SDS011;26604;53.596;10.042;2023-08-20T04:27:44;41.67;;;15.02;;
15637;SDS011;26604;53.596;10.042;2023-08-20T04:30:12;38.25;;;14.70;;
15637;SDS011;26604;53.596;10.042;2023-08-20T04:32:39;38.60;;;14.43;;
15637;SDS011;26604;53.596;10.042;2023-08-20T04:35:07;44.30;;;15.25;;
15637;SDS011;26604;53.596;10.042;2023-08-20T04:37:35;48.50;;;16.02;;
15637;SDS011;26604;53.596;10.042;2023-08-20T04:40:02;49.38;;;17.98;;
15637;SDS011;26604;53.596;10.042;2023-08-20T04:42:30;61.65;;;18.67;;
15637;SDS011;26604;53.596;10.042;2023-08-20T04:44:57;60.65;;;20.85;;
15637;SDS011;26604;53.596;10.042;2023-08-20T04:47:26;105.60;;;24.55;;
15637;SDS011;26604;53.596;10.042;2023-08-20T04:49:53;86.20;;;23.85;;
15637;SDS011;26604;53.596;10.042;2023-08-20T04:52:19;99.18;;;27.08;;
15637;SDS011;26604;53.596;10.042;2023-08-20T04:54:46;83.00;;;24.95;;
15637;SDS011;26604;53.596;10.042;2023-08-20T04:57:13;83.45;;;25.02;;
15637;SDS011;26604;53.596;10.042;2023-08-20T04:59:41;90.40;;;25.90;;
15637;SDS011;26604;53.596;10.042;2023-08-20T05:02:10;73.43;;;25.30;;
15637;SDS011;26604;53.596;10.042;2023-08-20T05:04:38;79.07;;;24.50;;
15637;SDS011;26604;53.596;10.042;2023-08-20T05:07:05;78.45;;;24.05;;
15637;SDS011;26604;53.596;10.042;2023-08-20T05:09:32;65.90;;;22.45;;
15637;SDS011;26604;53.596;10.042;2023-08-20T05:12:00;62.67;;;22.90;;
15637;SDS011;26604;53.596;10.042;2023-08-20T05:14:27;59.15;;;22.67;;
15637;SDS011;26604;53.596;10.042;2023-08-20T05:16:54;51.75;;;23.02;;
15637;SDS011;26604;53.596;10.042;2023-08-20T05:19:21;47.58;;;20.02;;
15637;SDS011;26604;53.596;10.042;2023-08-20T05:21:52;55.05;;;21.80;;
15637;SDS011;26604;53.596;10.042;2023-08-20T05:24:21;36.60;;;17.08;;
15637;SDS011;26604;53.596;10.042;2023-08-20T05:26:49;34.33;;;16.52;;
15637;SDS011;26604;53.596;10.042;2023-08-20T05:29:30;31.13;;;15.90;;
15637;SDS011;26604;53.596;10.042;2023-08-20T05:31:57;27.27;;;14.60;;
15637;SDS011;26604;53.596;10.042;2023-08-20T05:34:24;41.25;;;16.45;;
15637;SDS011;26604;53.596;10.042;2023-08-20T05:36:50;26.70;;;13.05;;
15637;SDS011;26604;53.596;10.042;2023-08-20T05:39:19;25.20;;;13.70;;
15637;SDS011;26604;53.596;10.042;2023-08-20T05:41:46;28.38;;;14.70;;
15637;SDS011;26604;53.596;10.042;2023-08-20T05:44:13;32.97;;;15.65;;
15637;SDS011;26604;53.596;10.042;2023-08-20T05:46:39;25.42;;;14.57;;
15637;SDS011;26604;53.596;10.042;2023-08-20T05:49:06;31.60;;;15.65;;
15637;SDS011;26604;53.596;10.042;2023-08-20T05:51:33;33.15;;;16.23;;
15637;SDS011;26604;53.596;10.042;2023-08-20T05:54:01;35.03;;;19.23;;
15637;SDS011;26604;53.596;10.042;2023-08-20T05:56:28;39.78;;;19.15;;
15637;SDS011;26604;53.596;10.042;2023-08-20T05:58:55;51.08;;;21.58;;
15637;SDS011;26604;53.596;10.042;2023-08-20T06:01:22;37.38;;;19.92;;
15637;SDS011;26604;53.596;10.042;2023-08-20T06:03:49;41.38;;;20.63;;
15637;SDS011;26604;53.596;10.042;2023-08-20T06:06:16;46.17;;;20.88;;
15637;SDS011;26604;53.596;10.042;2023-08-20T06:08:43;53.70;;;22.50;;
15637;SDS011;26604;53.596;10.042;2023-08-20T06:11:11;41.70;;;21.15;;
15637;SDS011;26604;53.596;10.042;2023-08-20T06:13:38;40.95;;;19.55;;
15637;SDS011;26604;53.596;10.042;2023-08-20T06:16:06;37.22;;;18.83;;
15637;SDS011;26604;53.596;10.042;2023-08-20T06:18:34;34.80;;;18.13;;
15637;SDS011;26604;53.596;10.042;2023-08-20T06:21:02;38.17;;;17.95;;
15637;SDS011;26604;53.596;10.042;2023-08-20T06:23:29;30.85;;;17.63;;
15637;SDS011;26604;53.596;10.042;2023-08-20T06:25:56;34.95;;;17.40;;
15637;SDS011;26604;53.596;10.042;2023-08-20T06:28:24;28.08;;;16.33;;
15637;SDS011;26604;53.596;10.042;2023-08-20T06:30:51;29.95;;;14.95;;
15637;SDS011;26604;53.596;10.042;2023-08-20T06:33:18;31.55;;;14.77;;
15637;SDS011;26604;53.596;10.042;2023-08-20T06:35:45;31.98;;;14.98;;
15637;SDS011;26604;53.596;10.042;2023-08-20T06:38:12;38.17;;;14.70;;
15637;SDS011;26604;53.596;10.042;2023-08-20T06:40:39;34.83;;;15.00;;
15637;SDS011;26604;53.596;10.042;2023-08-20T06:43:06;28.67;;;14.55;;
15637;SDS011;26604;53.596;10.042;2023-08-20T06:45:34;29.90;;;15.90;;
15637;SDS011;26604;53.596;10.042;2023-08-20T06:48:01;31.73;;;15.98;;
15637;SDS011;26604;53.596;10.042;2023-08-20T06:50:28;33.65;;;18.63;;
15637;SDS011;26604;53.596;10.042;2023-08-20T06:52:55;26.00;;;16.02;;
15637;SDS011;26604;53.596;10.042;2023-08-20T06:55:22;33.78;;;16.85;;
15637;SDS011;26604;53.596;10.042;2023-08-20T06:57:48;32.38;;;16.80;;
15637;SDS011;26604;53.596;10.042;2023-08-20T07:00:15;34.03;;;17.20;;
15637;SDS011;26604;53.596;10.042;2023-08-20T07:02:47;32.08;;;17.45;;
15637;SDS011;26604;53.596;10.042;2023-08-20T07:05:14;31.13;;;16.95;;
15637;SDS011;26604;53.596;10.042;2023-08-20T07:07:41;31.92;;;17.25;;
15637;SDS011;26604;53.596;10.042;2023-08-20T07:10:07;34.88;;;18.17;;
15637;SDS011;26604;53.596;10.042;2023-08-20T07:12:35;40.47;;;20.02;;
15637;SDS011;26604;53.596;10.042;2023-08-20T07:15:02;39.83;;;20.52;;
15637;SDS011;26604;53.596;10.042;2023-08-20T07:17:30;40.20;;;20.02;;
15637;SDS011;26604;53.596;10.042;2023-08-20T07:19:58;37.92;;;19.77;;
15637;SDS011;26604;53.596;10.042;2023-08-20T07:22:25;43.97;;;19.80;;
15637;SDS011;26604;53.596;10.042;2023-08-20T07:24:51;37.83;;;19.23;;
15637;SDS011;26604;53.596;10.042;2023-08-20T07:27:18;39.65;;;19.63;;
15637;SDS011;26604;53.596;10.042;2023-08-20T07:29:45;40.33;;;18.67;;
15637;SDS011;26604;53.596;10.042;2023-08-20T07:32:12;38.13;;;19.33;;
15637;SDS011;26604;53.596;10.042;2023-08-20T07:34:39;40.00;;;18.58;;
15637;SDS011;26604;53.596;10.042;2023-08-20T07:37:07;39.72;;;18.63;;
15637;SDS011;26604;53.596;10.042;2023-08-20T07:39:34;30.52;;;16.52;;
15637;SDS011;26604;53.596;10.042;2023-08-20T07:42:01;39.83;;;18.70;;
15637;SDS011;26604;53.596;10.042;2023-08-20T07:44:28;39.13;;;17.70;;
15637;SDS011;26604;53.596;10.042;2023-08-20T07:46:55;31.92;;;17.42;;
15637;SDS011;26604;53.596;10.042;2023-08-20T07:49:22;33.75;;;16.20;;
15637;SDS011;26604;53.596;10.042;2023-08-20T07:51:49;32.78;;;17.08;;
15637;SDS011;26604;53.596;10.042;2023-08-20T07:54:18;29.48;;;16.00;;
15637;SDS011;26604;53.596;10.042;2023-08-20T07:56:45;29.52;;;15.63;;
15637;SDS011;26604;53.596;10.042;2023-08-20T07:59:12;28.67;;;15.27;;
15637;SDS011;26604;53.596;10.042;2023-08-20T08:01:39;25.83;;;12.50;;
15637;SDS011;26604;53.596;10.042;2023-08-20T08:04:06;18.70;;;9.45;;
15637;SDS011;26604;53.596;10.042;2023-08-20T08:06:33;12.98;;;7.22;;
15637;SDS011;26604;53.596;10.042;2023-08-20T08:09:19;13.95;;;6.70;;
15637;SDS011;26604;53.596;10.042;2023-08-20T08:11:48;15.07;;;5.90;;
15637;SDS011;26604;53.596;10.042;2023-08-20T08:14:15;8.38;;;3.42;;
15637;SDS011;26604;53.596;10.042;2023-08-20T08:16:42;9.98;;;3.90;;
15637;SDS011;26604;53.596;10.042;2023-08-20T08:19:09;10.32;;;4.03;;
15637;SDS011;26604;53.596;10.042;2023-08-20T08:21:36;5.97;;;3.85;;
15637;SDS011;26604;53.596;10.042;2023-08-20T08:24:03;11.02;;;3.30;;
15637;SDS011;26604;53.596;10.042;2023-08-20T08:26:33;7.45;;;3.47;;
15637;SDS011;26604;53.596;10.042;2023-08-20T08:29:00;8.43;;;3.17;;
15637;SDS011;26604;53.596;10.042;2023-08-20T08:31:27;7.32;;;2.88;;
15637;SDS011;26604;53.596;10.042;2023-08-20T08:33:56;5.72;;;2.50;;
15637;SDS011;26604;53.596;10.042;2023-08-20T08:36:23;14.40;;;3.08;;
15637;SDS011;26604;53.596;10.042;2023-08-20T08:38:51;7.95;;;2.35;;
15637;SDS011;26604;53.596;10.042;2023-08-20T08:41:18;5.35;;;2.35;;
15637;SDS011;26604;53.596;10.042;2023-08-20T08:43:49;6.93;;;2.80;;
15637;SDS011;26604;53.596;10.042;2023-08-20T08:46:23;9.25;;;2.88;;
15637;SDS011;26604;53.596;10.042;2023-08-20T08:48:51;7.03;;;2.10;;
15637;SDS011;26604;53.596;10.042;2023-08-20T08:51:18;8.43;;;2.13;;
15637;SDS011;26604;53.596;10.042;2023-08-20T08:53:45;9.45;;;2.60;;
15637;SDS011;26604;53.596;10.042;2023-08-20T08:56:12;8.60;;;2.95;;
15637;SDS011;26604;53.596;10.042;2023-08-20T08:58:39;5.68;;;2.08;;
15637;SDS011;26604;53.596;10.042;2023-08-20T09:01:08;8.95;;;2.65;;
15637;SDS011;26604;53.596;10.042;2023-08-20T09:03:35;8.68;;;1.70;;
15637;SDS011;26604;53.596;10.042;2023-08-20T09:06:02;7.68;;;2.33;;
15637;SDS011;26604;53.596;10.042;2023-08-20T09:08:35;7.13;;;2.33;;
15637;SDS011;26604;53.596;10.042;2023-08-20T09:11:02;8.65;;;2.20;;
15637;SDS011;26604;53.596;10.042;2023-08-20T09:13:32;6.18;;;2.40;;
15637;SDS011;26604;53.596;10.042;2023-08-20T09:16:02;8.23;;;2.45;;
15637;SDS011;26604;53.596;10.042;2023-08-20T09:18:37;3.67;;;2.10;;
15637;SDS011;26604;53.596;10.042;2023-08-20T09:21:06;11.40;;;2.53;;
15637;SDS011;26604;53.596;10.042;2023-08-20T09:23:33;4.18;;;2.13;;
15637;SDS011;26604;53.596;10.042;2023-08-20T09:26:04;7.43;;;2.10;;
15637;SDS011;26604;53.596;10.042;2023-08-20T09:28:39;9.07;;;2.45;;
15637;SDS011;26604;53.596;10.042;2023-08-20T09:31:07;7.25;;;2.20;;
15637;SDS011;26604;53.596;10.042;2023-08-20T09:33:35;10.55;;;2.17;;
15637;SDS011;26604;53.596;10.042;2023-08-20T09:36:02;8.45;;;2.28;;
15637;SDS011;26604;53.596;10.042;2023-08-20T09:38:30;7.22;;;2.58;;
15637;SDS011;26604;53.596;10.042;2023-08-20T09:41:03;8.57;;;2.03;;
15637;SDS011;26604;53.596;10.042;2023-08-20T09:43:31;10.10;;;3.05;;
15637;SDS011;26604;53.596;10.042;2023-08-20T09:46:00;6.38;;;2.22;;
15637;SDS011;26604;53.596;10.042;2023-08-20T09:48:32;5.75;;;2.70;;
15637;SDS011;26604;53.596;10.042;2023-08-20T09:51:03;5.78;;;2.25;;
15637;SDS011;26604;53.596;10.042;2023-08-20T09:53:34;9.15;;;2.97;;
15637;SDS011;26604;53.596;10.042;2023-08-20T09:56:05;8.73;;;2.67;;
15637;SDS011;26604;53.596;10.042;2023-08-20T09:58:36;11.25;;;2.50;;
15637;SDS011;26604;53.596;10.042;2023-08-20T10:01:04;10.43;;;2.00;;
15637;SDS011;26604;53.596;10.042;2023-08-20T10:03:31;6.70;;;2.28;;
15637;SDS011;26604;53.596;10.042;2023-08-20T10:05:59;4.75;;;2.10;;
15637;SDS011;26604;53.596;10.042;2023-08-20T10:08:28;5.85;;;2.00;;
15637;SDS011;26604;53.596;10.042;2023-08-20T10:10:56;6.18;;;2.20;;
15637;SDS011;26604;53.596;10.042;2023-08-20T10:13:23;6.30;;;2.40;;
15637;SDS011;26604;53.596;10.042;2023-08-20T10:15:50;8.45;;;2.50;;
15637;SDS011;26604;53.596;10.042;2023-08-20T10:18:19;10.82;;;3.00;;
15637;SDS011;26604;53.596;10.042;2023-08-20T10:20:47;9.50;;;2.60;;
15637;SDS011;26604;53.596;10.042;2023-08-20T10:23:19;7.05;;;2.72;;
15637;SDS011;26604;53.596;10.042;2023-08-20T10:25:48;8.27;;;2.35;;
15637;SDS011;26604;53.596;10.042;2023-08-20T10:28:19;8.38;;;2.80;;
15637;SDS011;26604;53.596;10.042;2023-08-20T10:31:03;9.07;;;2.80;;
15637;SDS011;26604;53.596;10.042;2023-08-20T10:33:31;6.28;;;2.63;;
15637;SDS011;26604;53.596;10.042;2023-08-20T10:36:06;10.30;;;2.30;;
15637;SDS011;26604;53.596;10.042;2023-08-20T10:38:36;5.07;;;2.33;;
15637;SDS011;26604;53.596;10.042;2023-08-20T10:41:05;7.97;;;2.60;;
15637;SDS011;26604;53.596;10.042;2023-08-20T10:43:36;8.07;;;2.05;;
15637;SDS011;26604;53.596;10.042;2023-08-20T10:46:05;4.90;;;2.17;;
15637;SDS011;26604;53.596;10.042;2023-08-20T10:48:34;5.65;;;2.05;;
15637;SDS011;26604;53.596;10.042;2023-08-20T10:51:09;6.95;;;2.17;;
15637;SDS011;26604;53.596;10.042;2023-08-20T10:53:41;8.88;;;2.53;;
15637;SDS011;26604;53.596;10.042;2023-08-20T10:56:15;4.50;;;1.92;;
15637;SDS011;26604;53.596;10.042;2023-08-20T10:58:45;5.40;;;2.15;;
15637;SDS011;26604;53.596;10.042;2023-08-20T11:01:18;7.93;;;2.22;;
15637;SDS011;26604;53.596;10.042;2023-08-20T11:03:47;5.50;;;2.30;;
15637;SDS011;26604;53.596;10.042;2023-08-20T11:06:15;5.60;;;2.00;;
15637;SDS011;26604;53.596;10.042;2023-08-20T11:08:43;7.03;;;2.30;;
15637;SDS011;26604;53.596;10.042;2023-08-20T11:11:11;6.07;;;2.00;;
15637;SDS011;26604;53.596;10.042;2023-08-20T11:13:38;7.55;;;2.00;;
15637;SDS011;26604;53.596;10.042;2023-08-20T11:16:07;4.32;;;2.05;;
15637;SDS011;26604;53.596;10.042;2023-08-20T11:18:35;8.75;;;2.47;;
15637;SDS011;26604;53.596;10.042;2023-08-20T11:21:02;9.55;;;2.20;;
15637;SDS011;26604;53.596;10.042;2023-08-20T11:23:30;8.45;;;2.03;;
15637;SDS011;26604;53.596;10.042;2023-08-20T11:25:59;10.52;;;2.92;;
15637;SDS011;26604;53.596;10.042;2023-08-20T11:28:26;7.25;;;2.10;;
15637;SDS011;26604;53.596;10.042;2023-08-20T11:30:54;5.93;;;1.92;;
15637;SDS011;26604;53.596;10.042;2023-08-20T11:33:22;6.60;;;2.30;;
15637;SDS011;26604;53.596;10.042;2023-08-20T11:35:51;7.35;;;2.50;;
15637;SDS011;26604;53.596;10.042;2023-08-20T11:38:18;4.30;;;2.05;;
15637;SDS011;26604;53.596;10.042;2023-08-20T11:40:47;7.50;;;2.28;;
15637;SDS011;26604;53.596;10.042;2023-08-20T11:43:16;11.10;;;2.45;;
15637;SDS011;26604;53.596;10.042;2023-08-20T11:45:46;9.02;;;2.30;;
15637;SDS011;26604;53.596;10.042;2023-08-20T11:48:14;5.40;;;2.00;;
15637;SDS011;26604;53.596;10.042;2023-08-20T11:50:41;8.70;;;2.28;;
15637;SDS011;26604;53.596;10.042;2023-08-20T11:53:08;10.98;;;2.53;;
15637;SDS011;26604;53.596;10.042;2023-08-20T11:55:37;12.88;;;2.70;;
15637;SDS011;26604;53.596;10.042;2023-08-20T11:58:09;12.63;;;2.20;;
15637;SDS011;26604;53.596;10.042;2023-08-20T12:00:39;9.13;;;2.42;;
15637;SDS011;26604;53.596;10.042;2023-08-20T12:03:07;7.88;;;2.40;;
15637;SDS011;26604;53.596;10.042;2023-08-20T12:05:34;4.93;;;2.42;;
15637;SDS011;26604;53.596;10.042;2023-08-20T12:08:02;10.88;;;2.35;;
15637;SDS011;26604;53.596;10.042;2023-08-20T12:10:30;6.85;;;2.40;;
15637;SDS011;26604;53.596;10.042;2023-08-20T12:12:58;8.32;;;2.30;;
15637;SDS011;26604;53.596;10.042;2023-08-20T12:15:27;7.90;;;1.90;;
15637;SDS011;26604;53.596;10.042;2023-08-20T12:17:56;4.20;;;2.10;;
15637;SDS011;26604;53.596;10.042;2023-08-20T12:20:26;8.15;;;2.30;;
15637;SDS011;26604;53.596;10.042;2023-08-20T12:22:54;4.05;;;2.10;;
15637;SDS011;26604;53.596;10.042;2023-08-20T12:25:22;5.03;;;2.15;;
15637;SDS011;26604;53.596;10.042;2023-08-20T12:27:49;7.60;;;1.85;;
15637;SDS011;26604;53.596;10.042;2023-08-20T12:30:16;6.93;;;2.45;;
15637;SDS011;26604;53.596;10.042;2023-08-20T12:32:43;10.25;;;2.53;;
15637;SDS011;26604;53.596;10.042;2023-08-20T12:35:11;7.47;;;2.20;;
15637;SDS011;26604;53.596;10.042;2023-08-20T12:37:38;5.35;;;2.38;;
15637;SDS011;26604;53.596;10.042;2023-08-20T12:40:05;5.90;;;2.30;;
15637;SDS011;26604;53.596;10.042;2023-08-20T12:42:36;6.93;;;2.03;;
15637;SDS011;26604;53.596;10.042;2023-08-20T12:45:07;7.63;;;2.35;;
15637;SDS011;26604;53.596;10.042;2023-08-20T12:47:35;9.63;;;2.55;;
15637;SDS011;26604;53.596;10.042;2023-08-20T12:50:02;6.97;;;2.33;;
15637;SDS011;26604;53.596;10.042;2023-08-20T12:52:31;5.70;;;2.20;;
15637;SDS011;26604;53.596;10.042;2023-08-20T12:54:59;5.65;;;2.15;;
15637;SDS011;26604;53.596;10.042;2023-08-20T12:57:26;5.22;;;1.98;;
15637;SDS011;26604;53.596;10.042;2023-08-20T12:59:53;6.00;;;2.30;;
15637;SDS011;26604;53.596;10.042;2023-08-20T13:02:20;8.35;;;2.67;;
15637;SDS011;26604;53.596;10.042;2023-08-20T13:04:47;5.38;;;2.38;;
15637;SDS011;26604;53.596;10.042;2023-08-20T13:07:15;4.55;;;1.92;;
15637;SDS011;26604;53.596;10.042;2023-08-20T13:09:44;4.47;;;1.85;;
15637;SDS011;26604;53.596;10.042;2023-08-20T13:12:11;6.50;;;2.47;;
15637;SDS011;26604;53.596;10.042;2023-08-20T13:14:39;5.18;;;2.45;;
15637;SDS011;26604;53.596;10.042;2023-08-20T13:17:07;7.60;;;2.83;;
15637;SDS011;26604;53.596;10.042;2023-08-20T13:19:35;7.63;;;2.67;;
15637;SDS011;26604;53.596;10.042;2023-08-20T13:22:02;6.53;;;2.05;;
15637;SDS011;26604;53.596;10.042;2023-08-20T13:24:29;7.55;;;2.60;;
15637;SDS011;26604;53.596;10.042;2023-08-20T13:26:57;6.90;;;2.50;;
15637;SDS011;26604;53.596;10.042;2023-08-20T13:29:24;8.18;;;2.92;;
15637;SDS011;26604;53.596;10.042;2023-08-20T13:31:51;4.85;;;2.13;;
15637;SDS011;26604;53.596;10.042;2023-08-20T13:34:18;5.10;;;2.10;;
15637;SDS011;26604;53.596;10.042;2023-08-20T13:36:44;5.47;;;2.22;;
15637;SDS011;26604;53.596;10.042;2023-08-20T13:39:12;5.85;;;2.30;;
15637;SDS011;26604;53.596;10.042;2023-08-20T13:41:39;10.30;;;2.38;;
15637;SDS011;26604;53.596;10.042;2023-08-20T13:44:08;6.80;;;2.20;;
15637;SDS011;26604;53.596;10.042;2023-08-20T13:46:35;8.68;;;2.20;;
15637;SDS011;26604;53.596;10.042;2023-08-20T13:49:02;7.32;;;2.30;;
15637;SDS011;26604;53.596;10.042;2023-08-20T13:51:29;6.85;;;2.13;;
15637;SDS011;26604;53.596;10.042;2023-08-20T13:53:56;7.50;;;2.35;;
15637;SDS011;26604;53.596;10.042;2023-08-20T13:56:23;10.57;;;2.67;;
15637;SDS011;26604;53.596;10.042;2023-08-20T13:58:50;5.88;;;2.92;;
15637;SDS011;26604;53.596;10.042;2023-08-20T14:01:19;5.80;;;1.92;;
15637;SDS011;26604;53.596;10.042;2023-08-20T14:03:46;6.03;;;2.35;;
15637;SDS011;26604;53.596;10.042;2023-08-20T14:06:14;5.85;;;1.88;;
15637;SDS011;26604;53.596;10.042;2023-08-20T14:08:41;7.20;;;2.03;;
15637;SDS011;26604;53.596;10.042;2023-08-20T14:11:08;14.68;;;2.80;;
15637;SDS011;26604;53.596;10.042;2023-08-20T14:13:35;5.70;;;1.90;;
15637;SDS011;26604;53.596;10.042;2023-08-20T14:16:02;4.18;;;2.15;;
15637;SDS011;26604;53.596;10.042;2023-08-20T14:18:30;3.35;;;1.92;;
15637;SDS011;26604;53.596;10.042;2023-08-20T14:20:57;6.05;;;2.05;;
15637;SDS011;26604;53.596;10.042;2023-08-20T14:23:26;9.50;;;2.50;;
15637;SDS011;26604;53.596;10.042;2023-08-20T14:26:05;5.45;;;2.40;;